Iblea — IBFK — position and weather

sailwx.info

Track history (hours):
 
Tides and Currents Weather Stations Pressure Air Temp Water Temp Dewpoint Dewpoint Depression Visibility Wind Speed Wind Dir Waves Ship Positions

Iblea

Last reported at 2017-May-24 19:42 UTC. Time now 2017-May-27 13:51 UTC.
Position N 43°48' W 005°54'.

Length 176 m; draft 10.3 m.

Type: Ship. MMSI: 247087700.

Date/timePositionNaut miles runAvg speedWind from/ knotsBaromVisibWave heightAir tempDewpointWater temp
2017-May-24 19:42N 43°48' W 005°54'311.1
2017-May-24 19:25N 43°48' W 005°50'511.1
2017-May-24 18:59N 43°48' W 005°43'511.1
2017-May-24 18:30N 43°47' W 005°36'511.1
2017-May-24 18:00N 43°47' W 005°28'611.3
2017-May-24 17:30N 43°46' W 005°21'611.1
2017-May-24 17:00N 43°46' W 005°13'611.0
2017-May-24 16:29N 43°45' W 005°05'511.0
2017-May-24 16:00N 43°44' W 004°58'611.2
2017-May-24 15:28N 43°44' W 004°50'  
2017-May-22 09:22N 43°42' W 004°48'513.0
2017-May-22 08:59N 43°43' W 004°55'813.2
2017-May-22 08:25N 43°44' W 005°06'513.3
2017-May-22 08:00N 43°44' W 005°13'613.0
2017-May-22 07:30N 43°45' W 005°22'712.8
2017-May-22 07:00N 43°46' W 005°31'612.7
2017-May-22 06:30N 43°46' W 005°40'612.8
2017-May-22 06:00N 43°47' W 005°48'713.1
2017-May-22 05:30N 43°48' W 005°57'713.3
2017-May-22 05:00N 43°48' W 006°07'713.2
2017-May-22 04:30N 43°49' W 006°16'250 9.9
2017-May-21 03:15N 40°36' W 009°49'412.7
2017-May-21 02:58N 40°32' W 009°49'612.6
2017-May-21 02:30N 40°26' W 009°49'612.5
2017-May-21 02:00N 40°20' W 009°50'612.6
2017-May-21 01:30N 40°14' W 009°50'612.8
2017-May-21 01:00N 40°07' W 009°50'612.7
2017-May-21 00:30N 40°01' W 009°50'612.6
2017-May-21 00:00N 39°55' W 009°50'612.7
2017-May-20 23:30N 39°48' W 009°50'612.7
2017-May-20 23:00N 39°42' W 009°50'612.6
2017-May-20 22:30N 39°36' W 009°50'612.4
2017-May-20 22:00N 39°29' W 009°50'612.1
2017-May-20 21:30N 39°23' W 009°50'612.1
2017-May-20 21:00N 39°17' W 009°51'612.0
2017-May-20 20:30N 39°11' W 009°51'611.9
2017-May-20 20:00N 39°05' W 009°52'611.8
2017-May-20 19:30N 38°60' W 009°52'612.0
2017-May-20 19:00N 38°54' W 009°52'611.8
2017-May-20 18:30N 38°48' W 009°52'611.7
2017-May-20 18:00N 38°42' W 009°51'611.6
2017-May-20 17:30N 38°36' W 009°49'611.1
2017-May-20 17:00N 38°31' W 009°47'611.3
2017-May-20 16:30N 38°25' W 009°46'611.5
2017-May-20 16:00N 38°20' W 009°45'611.5
2017-May-20 15:30N 38°14' W 009°44'611.8
2017-May-20 15:00N 38°08' W 009°42'611.8
2017-May-20 14:30N 38°03' W 009°40'1212.0
2017-May-20 13:30N 37°51' W 009°36'612.1
2017-May-20 13:00N 37°45' W 009°34'612.2
2017-May-20 12:30N 37°39' W 009°32'612.2
2017-May-20 12:00N 37°33' W 009°31'612.2
2017-May-20 11:30N 37°28' W 009°28'612.3
2017-May-20 11:00N 37°22' W 009°26'612.0
2017-May-20 10:30N 37°16' W 009°24'612.0
2017-May-20 10:00N 37°10' W 009°22'612.2
2017-May-20 09:30N 37°04' W 009°21'612.1
2017-May-20 09:00N 36°58' W 009°21'612.3
2017-May-20 08:30N 36°52' W 009°18'612.1
2017-May-20 08:00N 36°48' W 009°13'612.1
2017-May-20 07:30N 36°44' W 009°07'612.5
2017-May-20 07:00N 36°42' W 008°60'612.6
2017-May-20 06:30N 36°40' W 008°52'712.7
2017-May-20 05:59N 36°37' W 008°45'613.0
2017-May-20 05:30N 36°35' W 008°37'713.6
2017-May-20 05:00N 36°33' W 008°29'713.7
2017-May-20 04:30N 36°31' W 008°21'713.3
2017-May-20 04:00N 36°29' W 008°14'913.5
2017-May-20 03:22N 36°26' W 008°03'10012.8
2017-May-19 19:33N 35°57' W 006°05'1613.0
2017-May-19 18:20N 35°58' W 005°45'513.0
2017-May-19 17:58N 35°58' W 005°40'613.0
2017-May-19 17:30N 35°58' W 005°32'612.7
2017-May-19 17:00N 36°00' W 005°25'612.2
2017-May-19 16:30N 36°01' W 005°17'713.5
2017-May-19 16:00N 35°59' W 005°09'713.7
2017-May-19 15:28N 35°57' W 005°01'2 0.1
2017-May-18 09:21N 35°55' W 004°60'410.6
2017-May-18 09:00N 35°55' W 005°04'1 1.3
2017-May-18 08:30N 35°55' W 005°05'611.5
2017-May-18 08:00N 35°55' W 005°12'611.0
2017-May-18 07:31N 35°55' W 005°19'1 1.9
2017-May-18 07:00N 35°55' W 005°20'0 0.0
2017-May-18 06:30N 35°55' W 005°20'0 0.1
2017-May-18 06:00N 35°55' W 005°20'0 0.0
2017-May-18 05:30N 35°55' W 005°20'0 0.0
2017-May-18 05:00N 35°55' W 005°20'0 0.1
2017-May-18 04:30N 35°55' W 005°20'0 0.0
2017-May-18 04:00N 35°55' W 005°20'0 0.0
2017-May-18 03:30N 35°55' W 005°20'0 0.0
2017-May-18 03:00N 35°55' W 005°20'0 0.0
2017-May-18 02:30N 35°55' W 005°20'0 0.0
2017-May-18 02:00N 35°55' W 005°20'0 0.0
2017-May-18 01:30N 35°55' W 005°20'0 0.0
2017-May-18 01:00N 35°55' W 005°20'0 0.0
2017-May-18 00:30N 35°55' W 005°20'0 0.1
2017-May-18 00:00N 35°55' W 005°20'0 0.0
2017-May-17 23:30N 35°55' W 005°20'0 0.0
2017-May-17 23:00N 35°55' W 005°20'0 0.0
2017-May-17 22:30N 35°55' W 005°20'0 0.0
2017-May-17 22:00N 35°55' W 005°20'0 0.0
2017-May-17 21:30N 35°55' W 005°20'0 0.0
2017-May-17 21:00N 35°55' W 005°20'0 0.0
2017-May-17 20:30N 35°55' W 005°20'0 0.0
2017-May-17 20:00N 35°55' W 005°20'0 0.1
2017-May-17 19:30N 35°55' W 005°20'0 0.1
2017-May-17 19:00N 35°55' W 005°20'0 0.0
2017-May-17 18:24N 35°55' W 005°20'0 0.0
2017-May-17 18:00N 35°55' W 005°20'0 0.1
2017-May-17 17:30N 35°55' W 005°20'0 0.0
2017-May-17 17:00N 35°55' W 005°19'0 0.1
2017-May-17 16:30N 35°55' W 005°20'0 0.0
2017-May-17 16:00N 35°55' W 005°20'0 0.1
2017-May-17 15:30N 35°55' W 005°19'0 0.0
2017-May-17 15:00N 35°55' W 005°19'0 0.4
2017-May-17 14:30N 35°55' W 005°20'0 0.0
2017-May-17 13:30N 35°55' W 005°20'0 0.0
2017-May-17 13:00N 35°55' W 005°20'0 0.2
2017-May-17 12:30N 35°55' W 005°20'2 3.5
2017-May-17 12:00N 35°56' W 005°21'510.3
2017-May-17 11:30N 35°57' W 005°27'2111.7
2017-May-17 09:41N 35°55' W 005°53'8410.2
2017-May-17 01:29N 35°60' W 007°37'6811.4
2017-May-16 19:33N 36°06' W 009°00'112.0
2017-May-16 19:30N 36°06' W 009°01'611.7
2017-May-16 19:00N 36°06' W 009°08'611.6
2017-May-16 18:30N 36°07' W 009°15'611.7
2017-May-16 18:00N 36°07' W 009°22'611.7
2017-May-16 17:30N 36°08' W 009°30'611.6
2017-May-16 17:00N 36°08' W 009°37'611.7
2017-May-16 16:30N 36°09' W 009°44'611.8
2017-May-16 16:00N 36°09' W 009°51'611.9
2017-May-16 15:30N 36°10' W 009°59'611.8
2017-May-16 15:00N 36°10' W 010°06'1212.1
2017-May-16 14:00N 36°11' W 010°21'612.1
2017-May-16 13:30N 36°12' W 010°28'612.0
2017-May-16 13:00N 36°12' W 010°36'612.0
2017-May-16 12:30N 36°13' W 010°43'612.3
2017-May-16 12:00N 36°13' W 010°51'612.4
2017-May-16 11:30N 36°14' W 010°58'1412.2
2017-May-16 10:22N 36°15' W 011°15'1612.3
2017-May-16 09:05N 36°16' W 011°35'112.2
2017-May-16 09:00N 36°16' W 011°36'612.3
2017-May-16 08:30N 36°17' W 011°44'612.0
2017-May-16 08:00N 36°17' W 011°51'612.0
2017-May-16 07:30N 36°18' W 011°58'611.8
2017-May-16 07:00N 36°19' W 012°06'711.8
2017-May-16 06:24N 36°19' W 012°15'  
Track history (hours):
 
Tides and Currents Weather Stations Pressure Air Temp Water Temp Dewpoint Dewpoint Depression Visibility Wind Speed Wind Dir Waves Ship Positions

Iblea

Last reported at 2017-May-24 19:42 UTC. Time now 2017-May-27 13:51 UTC.
Position N 43°48' W 005°54'.

Length 176 m; draft 10.3 m.

Type: Ship. MMSI: 247087700.

Date/timePositionNaut miles runAvg speedWind from/ knotsBaromVisibWave heightAir tempDewpointWater temp
2017-May-24 19:42N 43°48' W 005°54'311.1
2017-May-24 19:25N 43°48' W 005°50'511.1
2017-May-24 18:59N 43°48' W 005°43'511.1
2017-May-24 18:30N 43°47' W 005°36'511.1
2017-May-24 18:00N 43°47' W 005°28'611.3
2017-May-24 17:30N 43°46' W 005°21'611.1
2017-May-24 17:00N 43°46' W 005°13'611.0
2017-May-24 16:29N 43°45' W 005°05'511.0
2017-May-24 16:00N 43°44' W 004°58'611.2
2017-May-24 15:28N 43°44' W 004°50'  
2017-May-22 09:22N 43°42' W 004°48'513.0
2017-May-22 08:59N 43°43' W 004°55'813.2
2017-May-22 08:25N 43°44' W 005°06'513.3
2017-May-22 08:00N 43°44' W 005°13'613.0
2017-May-22 07:30N 43°45' W 005°22'712.8
2017-May-22 07:00N 43°46' W 005°31'612.7
2017-May-22 06:30N 43°46' W 005°40'612.8
2017-May-22 06:00N 43°47' W 005°48'713.1
2017-May-22 05:30N 43°48' W 005°57'713.3
2017-May-22 05:00N 43°48' W 006°07'713.2
2017-May-22 04:30N 43°49' W 006°16'250 9.9
2017-May-21 03:15N 40°36' W 009°49'412.7
2017-May-21 02:58N 40°32' W 009°49'612.6
2017-May-21 02:30N 40°26' W 009°49'612.5
2017-May-21 02:00N 40°20' W 009°50'612.6
2017-May-21 01:30N 40°14' W 009°50'612.8
2017-May-21 01:00N 40°07' W 009°50'612.7
2017-May-21 00:30N 40°01' W 009°50'612.6
2017-May-21 00:00N 39°55' W 009°50'612.7
2017-May-20 23:30N 39°48' W 009°50'612.7
2017-May-20 23:00N 39°42' W 009°50'612.6
2017-May-20 22:30N 39°36' W 009°50'612.4
2017-May-20 22:00N 39°29' W 009°50'612.1
2017-May-20 21:30N 39°23' W 009°50'612.1
2017-May-20 21:00N 39°17' W 009°51'612.0
2017-May-20 20:30N 39°11' W 009°51'611.9
2017-May-20 20:00N 39°05' W 009°52'611.8
2017-May-20 19:30N 38°60' W 009°52'612.0
2017-May-20 19:00N 38°54' W 009°52'611.8
2017-May-20 18:30N 38°48' W 009°52'611.7
2017-May-20 18:00N 38°42' W 009°51'611.6
2017-May-20 17:30N 38°36' W 009°49'611.1
2017-May-20 17:00N 38°31' W 009°47'611.3
2017-May-20 16:30N 38°25' W 009°46'611.5
2017-May-20 16:00N 38°20' W 009°45'611.5
2017-May-20 15:30N 38°14' W 009°44'611.8
2017-May-20 15:00N 38°08' W 009°42'611.8
2017-May-20 14:30N 38°03' W 009°40'1212.0
2017-May-20 13:30N 37°51' W 009°36'612.1
2017-May-20 13:00N 37°45' W 009°34'612.2
2017-May-20 12:30N 37°39' W 009°32'612.2
2017-May-20 12:00N 37°33' W 009°31'612.2
2017-May-20 11:30N 37°28' W 009°28'612.3
2017-May-20 11:00N 37°22' W 009°26'612.0
2017-May-20 10:30N 37°16' W 009°24'612.0
2017-May-20 10:00N 37°10' W 009°22'612.2
2017-May-20 09:30N 37°04' W 009°21'612.1
2017-May-20 09:00N 36°58' W 009°21'612.3
2017-May-20 08:30N 36°52' W 009°18'612.1
2017-May-20 08:00N 36°48' W 009°13'612.1
2017-May-20 07:30N 36°44' W 009°07'612.5
2017-May-20 07:00N 36°42' W 008°60'612.6
2017-May-20 06:30N 36°40' W 008°52'712.7
2017-May-20 05:59N 36°37' W 008°45'613.0
2017-May-20 05:30N 36°35' W 008°37'713.6
2017-May-20 05:00N 36°33' W 008°29'713.7
2017-May-20 04:30N 36°31' W 008°21'713.3
2017-May-20 04:00N 36°29' W 008°14'913.5
2017-May-20 03:22N 36°26' W 008°03'10012.8
2017-May-19 19:33N 35°57' W 006°05'1613.0
2017-May-19 18:20N 35°58' W 005°45'513.0
2017-May-19 17:58N 35°58' W 005°40'613.0
2017-May-19 17:30N 35°58' W 005°32'612.7
2017-May-19 17:00N 36°00' W 005°25'612.2
2017-May-19 16:30N 36°01' W 005°17'713.5
2017-May-19 16:00N 35°59' W 005°09'713.7
2017-May-19 15:28N 35°57' W 005°01'2 0.1
2017-May-18 09:21N 35°55' W 004°60'410.6
2017-May-18 09:00N 35°55' W 005°04'1 1.3
2017-May-18 08:30N 35°55' W 005°05'611.5
2017-May-18 08:00N 35°55' W 005°12'611.0
2017-May-18 07:31N 35°55' W 005°19'1 1.9
2017-May-18 07:00N 35°55' W 005°20'0 0.0
2017-May-18 06:30N 35°55' W 005°20'0 0.1
2017-May-18 06:00N 35°55' W 005°20'0 0.0
2017-May-18 05:30N 35°55' W 005°20'0 0.0
2017-May-18 05:00N 35°55' W 005°20'0 0.1
2017-May-18 04:30N 35°55' W 005°20'0 0.0
2017-May-18 04:00N 35°55' W 005°20'0 0.0
2017-May-18 03:30N 35°55' W 005°20'0 0.0
2017-May-18 03:00N 35°55' W 005°20'0 0.0
2017-May-18 02:30N 35°55' W 005°20'0 0.0
2017-May-18 02:00N 35°55' W 005°20'0 0.0
2017-May-18 01:30N 35°55' W 005°20'0 0.0
2017-May-18 01:00N 35°55' W 005°20'0 0.0
2017-May-18 00:30N 35°55' W 005°20'0 0.1
2017-May-18 00:00N 35°55' W 005°20'0 0.0
2017-May-17 23:30N 35°55' W 005°20'0 0.0
2017-May-17 23:00N 35°55' W 005°20'0 0.0
2017-May-17 22:30N 35°55' W 005°20'0 0.0
2017-May-17 22:00N 35°55' W 005°20'0 0.0
2017-May-17 21:30N 35°55' W 005°20'0 0.0
2017-May-17 21:00N 35°55' W 005°20'0 0.0
2017-May-17 20:30N 35°55' W 005°20'0 0.0
2017-May-17 20:00N 35°55' W 005°20'0 0.1
2017-May-17 19:30N 35°55' W 005°20'0 0.1
2017-May-17 19:00N 35°55' W 005°20'0 0.0
2017-May-17 18:24N 35°55' W 005°20'0 0.0
2017-May-17 18:00N 35°55' W 005°20'0 0.1
2017-May-17 17:30N 35°55' W 005°20'0 0.0
2017-May-17 17:00N 35°55' W 005°19'0 0.1
2017-May-17 16:30N 35°55' W 005°20'0 0.0
2017-May-17 16:00N 35°55' W 005°20'0 0.1
2017-May-17 15:30N 35°55' W 005°19'0 0.0
2017-May-17 15:00N 35°55' W 005°19'0 0.4
2017-May-17 14:30N 35°55' W 005°20'0 0.0
2017-May-17 13:30N 35°55' W 005°20'0 0.0
2017-May-17 13:00N 35°55' W 005°20'0 0.2
2017-May-17 12:30N 35°55' W 005°20'2 3.5
2017-May-17 12:00N 35°56' W 005°21'510.3
2017-May-17 11:30N 35°57' W 005°27'2111.7
2017-May-17 09:41N 35°55' W 005°53'8410.2
2017-May-17 01:29N 35°60' W 007°37'6811.4
2017-May-16 19:33N 36°06' W 009°00'112.0
2017-May-16 19:30N 36°06' W 009°01'611.7
2017-May-16 19:00N 36°06' W 009°08'611.6
2017-May-16 18:30N 36°07' W 009°15'611.7
2017-May-16 18:00N 36°07' W 009°22'611.7
2017-May-16 17:30N 36°08' W 009°30'611.6
2017-May-16 17:00N 36°08' W 009°37'611.7
2017-May-16 16:30N 36°09' W 009°44'611.8
2017-May-16 16:00N 36°09' W 009°51'611.9
2017-May-16 15:30N 36°10' W 009°59'611.8
2017-May-16 15:00N 36°10' W 010°06'1212.1
2017-May-16 14:00N 36°11' W 010°21'612.1
2017-May-16 13:30N 36°12' W 010°28'612.0
2017-May-16 13:00N 36°12' W 010°36'612.0
2017-May-16 12:30N 36°13' W 010°43'612.3
2017-May-16 12:00N 36°13' W 010°51'612.4
2017-May-16 11:30N 36°14' W 010°58'1412.2
2017-May-16 10:22N 36°15' W 011°15'1612.3
2017-May-16 09:05N 36°16' W 011°35'112.2
2017-May-16 09:00N 36°16' W 011°36'612.3
2017-May-16 08:30N 36°17' W 011°44'612.0
2017-May-16 08:00N 36°17' W 011°51'612.0
2017-May-16 07:30N 36°18' W 011°58'611.8
2017-May-16 07:00N 36°19' W 012°06'711.8
2017-May-16 06:24N 36°19' W 012°15'  

Dump ship's entire track history